logo meteosicilia

Diretta Meteo Palermo-Punta Raisi, Italiasabato 15 giugno ore 18:20

Mappa
Sereno 25 °C Sereno 24 Ore: T.min 17 T.max 27
Ponente Nord/Nord-Est Km/h 13 Punto di rugiada: 19 °C Umidità: 69% Visibilità: 10 Km
Il sole sorge alle: 05:42 Il sole tramonta alle: 20:34
15 Giugno 2024 18:20 tempo osservato: Sereno Sereno 25 69 1012 vento: Nord N/NE 13
15 Giugno 2024 17:50 tempo osservato: Sereno Sereno 25 65 1013 vento: Nord NE 7.4
15 Giugno 2024 17:20 tempo osservato: Sereno Sereno 25 65 1013 vento: Nord N/NE 11.1
15 Giugno 2024 16:50 tempo osservato: Sereno Sereno 26 54 1013 vento: Nord N/NE 7.4
15 Giugno 2024 16:20 tempo osservato: Sereno Sereno 26 61 1013 vento: Nord NE 16.7
15 Giugno 2024 15:50 tempo osservato: Sereno Sereno 25 69 1013 vento: Nord N/NE 16.7
15 Giugno 2024 15:20 tempo osservato: Sereno Sereno 25 65 1013 vento: Nord NE 18.5
15 Giugno 2024 14:50 tempo osservato: Sereno Sereno 26 57 1013 vento: Nord E/NE 22.2
15 Giugno 2024 14:20 tempo osservato: Sereno Sereno 26 54 1013 vento: Nord E/NE 24
15 Giugno 2024 13:50 tempo osservato: Sereno Sereno 27 50 1013 vento: Nord NE 25.9
15 Giugno 2024 13:20 tempo osservato: Sereno Sereno 26 54 1014 vento: Nord NE 24
15 Giugno 2024 12:50 tempo osservato: Sereno Sereno 25 61 1014 vento: Nord NE 27.8
15 Giugno 2024 12:20 tempo osservato: Sereno Sereno 27 44 1014 vento: Nord E/NE 27.8
15 Giugno 2024 11:50 tempo osservato: Sereno Sereno 25 47 1014 vento: Nord NE 22.2
15 Giugno 2024 11:20 tempo osservato: Sereno Sereno 24 57 1015 vento: Nord N/NE 22.2
15 Giugno 2024 10:50 tempo osservato: Sereno Sereno 24 50 1014 vento: Nord NE 20.3
15 Giugno 2024 10:20 tempo osservato: Sereno Sereno 23 56 1015 vento: Nord NE 20.3
15 Giugno 2024 09:50 tempo osservato: Sereno Sereno 23 60 1015 vento: Nord NE 20.3
15 Giugno 2024 09:20 tempo osservato: Sereno Sereno 23 56 1015 vento: Nord N/NE 14.8
15 Giugno 2024 08:50 tempo osservato: Sereno Sereno 24 43 1015 vento: Nord SO 13
15 Giugno 2024 08:20 tempo osservato: Sereno Sereno 21 60 1016 vento: Nord O/SO 13
15 Giugno 2024 07:50 tempo osservato: Sereno Sereno 21 64 1015 vento: Nord SO 9.3
15 Giugno 2024 07:20 tempo osservato: Sereno Sereno 20 68 1015 vento: Nord S/SO 11.1
15 Giugno 2024 06:50 tempo osservato: Sereno Sereno 19 68 1015 vento: Nord N 5.5
15 Giugno 2024 06:20 tempo osservato: Sereno Sereno 18 72 1015 vento: Nord S 7.4
15 Giugno 2024 05:50 tempo osservato: Sereno Sereno 17 77 1015 vento: Nord S 7.4
15 Giugno 2024 05:20 tempo osservato: Sereno Sereno 18 72 1014 vento: Nord N 3.7
15 Giugno 2024 04:50 tempo osservato: Sereno Sereno 18 67 1014 vento: Nord N 5.5
15 Giugno 2024 04:20 tempo osservato: Sereno Sereno 18 72 1015 vento: Nord N 5.5
15 Giugno 2024 03:50 tempo osservato: Sereno Sereno 17 77 1015 vento: Nord N 5.5
15 Giugno 2024 03:20 tempo osservato: Sereno Sereno 20 59 1015 vento: Nord N/NE 7.4
15 Giugno 2024 02:50 tempo osservato: Sereno Sereno 19 72 1015 vento: Nord N 3.7
15 Giugno 2024 02:20 tempo osservato: Sereno Sereno 20 64 1015 vento: Nord N 1.8
15 Giugno 2024 01:50 tempo osservato: Sereno Sereno 18 55 1016 vento: Nord N 5.5
15 Giugno 2024 01:20 tempo osservato: Sereno Sereno 19 55 1016 vento: Nord S 7.4
15 Giugno 2024 00:50 tempo osservato: Sereno Sereno 20 64 1016 vento: Nord N 3.7
15 Giugno 2024 00:20 tempo osservato: Sereno Sereno 21 56 1017 vento: Nord N 5.5
14 Giugno 2024 23:50 tempo osservato: Sereno Sereno 20 64 1017 vento: Nord N 5.5
14 Giugno 2024 23:20 tempo osservato: Sereno Sereno 21 60 1017 vento: Nord N 3.7
14 Giugno 2024 22:50 tempo osservato: Sereno Sereno 22 56 1017 vento: Nord E/NE 14.8
14 Giugno 2024 22:20 tempo osservato: Sereno Sereno 22 60 1018 vento: Nord E/NE 18.5
14 Giugno 2024 21:50 tempo osservato: Sereno Sereno 22 64 1018 vento: Nord E/NE 20.3
14 Giugno 2024 21:20 tempo osservato: Sereno Sereno 22 64 1017 vento: Nord E/NE 22.2
14 Giugno 2024 20:50 tempo osservato: Sereno Sereno 22 64 1017 vento: Nord NE 22.2
14 Giugno 2024 20:20 tempo osservato: Sereno Sereno 23 60 1018 vento: Nord NE 25.9
14 Giugno 2024 19:50 tempo osservato: Sereno Sereno 23 64 1018 vento: Nord NE 24
14 Giugno 2024 19:20 tempo osservato: Sereno Sereno 23 64 1018 vento: Nord NE 27.8
14 Giugno 2024 18:50 tempo osservato: Sereno Sereno 23 64 1018 vento: Nord NE 25.9